Time;durP1;ratioP1;P1;durP2;ratioP2;P2;SDS_P1;SDS_P2;PMS_P1;PMS_P2;Temp;Humidity;BMP_temperature;BMP_pressure;BME280_temperature;BME280_humidity;BME280_pressure;Samples;Min_cycle;Max_cycle;Signal;HPM_P1;HPM_P2
2021/10/07 00:02:01;;;;;;;2.75;0.65;;;;;;;12.15;98.94;102346.06;5070948;28;20056;-43
2021/10/07 00:04:30;;;;;;;2.92;0.60;;;;;;;12.14;99.00;102346.34;5071059;28;20072;-43
2021/10/07 00:06:58;;;;;;;2.38;0.50;;;;;;;12.10;98.90;102343.25;5070491;28;20068;-40
2021/10/07 00:09:26;;;;;;;1.90;0.50;;;;;;;12.06;98.96;102350.50;5071001;28;20051;-43
2021/10/07 00:11:54;;;;;;;2.00;0.47;;;;;;;12.03;99.11;102348.25;5067395;28;20520;-37
2021/10/07 00:14:23;;;;;;;2.85;0.77;;;;;;;11.98;99.21;102357.47;5054200;28;20133;-41
2021/10/07 00:16:51;;;;;;;2.80;0.50;;;;;;;11.94;99.18;102363.88;5071037;28;20045;-36
2021/10/07 00:19:19;;;;;;;3.65;0.60;;;;;;;11.91;99.37;102364.41;5070711;28;20413;-42
2021/10/07 00:21:47;;;;;;;2.55;0.50;;;;;;;11.88;99.11;102359.34;5067347;28;20468;-37
2021/10/07 00:24:14;;;;;;;2.80;0.70;;;;;;;11.88;99.79;102360.19;5071119;28;20055;-36
2021/10/07 00:26:45;;;;;;;2.00;0.45;;;;;;;11.89;99.93;102359.09;5069187;28;20410;-40
2021/10/07 00:29:32;;;;;;;2.38;0.65;;;;;;;11.89;100.00;102367.47;5070684;28;20131;-39
2021/10/07 00:32:03;;;;;;;2.08;0.60;;;;;;;11.90;100.00;102371.97;5069894;28;20054;-36
2021/10/07 00:34:41;;;;;;;2.63;0.50;;;;;;;11.90;100.00;102374.75;5070555;28;20056;-42
2021/10/07 00:37:21;;;;;;;3.33;0.77;;;;;;;11.89;100.00;102378.69;5070022;28;20095;-35
2021/10/07 00:39:48;;;;;;;2.15;0.63;;;;;;;11.87;100.00;102380.91;5071063;28;20516;-39
2021/10/07 00:42:16;;;;;;;1.80;0.63;;;;;;;11.86;100.00;102376.41;5070003;28;20048;-41
2021/10/07 00:44:45;;;;;;;1.83;0.60;;;;;;;11.83;100.00;102373.31;5070823;28;20040;-41
2021/10/07 00:47:16;;;;;;;1.92;0.50;;;;;;;11.81;100.00;102376.38;5070414;28;20067;-38
2021/10/07 00:49:44;;;;;;;1.90;0.70;;;;;;;11.76;100.00;102373.56;5070289;28;20051;-35
2021/10/07 00:52:15;;;;;;;2.45;0.60;;;;;;;11.73;100.00;102385.25;5070476;28;20287;-42
2021/10/07 00:54:42;;;;;;;2.58;0.50;;;;;;;11.67;100.00;102384.38;5070980;28;20037;-38
2021/10/07 00:57:18;;;;;;;0.95;0.40;;;;;;;11.63;100.00;102386.03;5069974;28;20094;-36
2021/10/07 00:59:46;;;;;;;1.77;0.47;;;;;;;11.57;100.00;102387.13;5070655;28;20052;-40
2021/10/07 01:02:15;;;;;;;2.25;0.40;;;;;;;11.53;100.00;102385.97;5072553;28;20115;-36
2021/10/07 01:04:44;;;;;;;1.60;0.40;;;;;;;11.49;100.00;102390.41;5063333;28;20045;-39
2021/10/07 01:07:11;;;;;;;1.13;0.40;;;;;;;11.45;100.00;102388.41;5074629;28;20059;-41
2021/10/07 01:09:39;;;;;;;2.25;0.60;;;;;;;11.40;100.00;102387.25;5073612;28;20052;-38
2021/10/07 01:12:09;;;;;;;4.35;0.85;;;;;;;11.36;100.00;102397.31;5074169;28;20057;-39
2021/10/07 01:14:44;;;;;;;1.90;0.60;;;;;;;11.32;100.00;102396.13;5070678;28;20135;-42
2021/10/07 01:17:12;;;;;;;2.03;0.50;;;;;;;11.29;100.00;102396.66;5073663;28;20071;-41
2021/10/07 01:19:42;;;;;;;2.33;0.47;;;;;;;11.29;100.00;102395.81;5073425;28;20482;-41
2021/10/07 01:22:09;;;;;;;5.07;0.88;;;;;;;11.28;100.00;102400.56;5074034;28;20048;-36
2021/10/07 01:24:37;;;;;;;1.98;0.50;;;;;;;11.29;100.00;102404.22;5073232;28;20052;-35
2021/10/07 01:27:05;;;;;;;2.50;0.60;;;;;;;11.28;100.00;102396.94;5073699;28;20076;-39
2021/10/07 01:29:33;;;;;;;2.28;0.70;;;;;;;11.26;100.00;102402.78;5073947;28;20051;-39
2021/10/07 01:32:01;;;;;;;2.78;0.60;;;;;;;11.24;100.00;102409.75;5073367;28;20040;-41
2021/10/07 01:34:31;;;;;;;2.72;0.70;;;;;;;11.21;100.00;102419.50;5073764;28;20060;-40
2021/10/07 01:37:00;;;;;;;1.38;0.57;;;;;;;11.20;100.00;102429.00;5073557;28;20055;-41
2021/10/07 01:39:29;;;;;;;1.65;0.60;;;;;;;11.18;100.00;102422.84;5072803;28;20134;-39
2021/10/07 01:41:56;;;;;;;2.05;0.50;;;;;;;11.18;100.00;102428.44;5073640;28;20055;-43
2021/10/07 01:44:25;;;;;;;2.25;0.57;;;;;;;11.18;100.00;102431.22;5073177;28;20569;-36
2021/10/07 01:46:54;;;;;;;2.30;0.55;;;;;;;11.20;100.00;102437.38;5073868;28;20055;-42
2021/10/07 01:49:22;;;;;;;1.67;0.68;;;;;;;11.22;100.00;102437.94;5073532;28;20055;-39
2021/10/07 01:51:50;;;;;;;2.78;0.68;;;;;;;11.23;100.00;102441.59;5072858;28;20056;-38
2021/10/07 01:54:19;;;;;;;2.00;0.60;;;;;;;11.23;100.00;102439.63;5073075;28;20055;-36
2021/10/07 01:56:47;;;;;;;2.20;0.80;;;;;;;11.22;100.00;102449.13;5073531;28;20076;-39
2021/10/07 01:59:16;;;;;;;1.58;0.47;;;;;;;11.22;100.00;102445.50;5072531;28;20045;-39
2021/10/07 02:01:43;;;;;;;1.65;0.57;;;;;;;11.21;100.00;102452.19;5073332;28;20051;-36
2021/10/07 02:04:12;;;;;;;1.55;0.43;;;;;;;11.20;100.00;102445.75;5073016;28;20045;-43
2021/10/07 02:06:40;;;;;;;2.47;0.82;;;;;;;11.20;100.00;102439.31;5072354;28;20052;-45
2021/10/07 02:09:08;;;;;;;2.58;0.57;;;;;;;11.18;100.00;102445.19;5072984;28;20135;-42
2021/10/07 02:11:37;;;;;;;2.03;0.60;;;;;;;11.18;100.00;102449.94;5073166;28;20053;-40
2021/10/07 02:14:05;;;;;;;1.20;0.40;;;;;;;11.15;100.00;102451.31;5071502;28;20044;-38
2021/10/07 02:16:34;;;;;;;2.28;0.68;;;;;;;11.13;100.00;102452.69;5072280;28;20094;-40
2021/10/07 02:19:02;;;;;;;2.42;0.68;;;;;;;11.11;100.00;102449.31;5072734;28;20063;-41
2021/10/07 02:21:30;;;;;;;1.42;0.50;;;;;;;11.07;100.00;102454.56;5072258;28;20135;-36
2021/10/07 02:23:57;;;;;;;1.98;0.55;;;;;;;11.05;100.00;102454.00;5072876;28;20048;-42
2021/10/07 02:26:25;;;;;;;1.58;0.60;;;;;;;11.04;100.00;102460.69;5072915;28;20053;-39
2021/10/07 02:28:54;;;;;;;1.85;0.47;;;;;;;11.02;100.00;102457.31;5072046;28;20047;-40
2021/10/07 02:31:22;;;;;;;2.60;0.70;;;;;;;11.01;100.00;102461.19;5072550;28;20467;-38
2021/10/07 02:33:50;;;;;;;2.45;0.63;;;;;;;11.02;100.00;102468.47;5072105;28;20086;-36
2021/10/07 02:36:18;;;;;;;1.88;0.60;;;;;;;11.02;100.00;102469.31;5072478;28;20056;-39
2021/10/07 02:38:46;;;;;;;2.72;0.60;;;;;;;11.04;100.00;102469.06;5072629;28;20040;-38
2021/10/07 02:41:13;;;;;;;3.70;0.90;;;;;;;11.08;100.00;102478.59;5070127;28;20051;-42
2021/10/07 02:43:41;;;;;;;3.70;0.80;;;;;;;11.11;100.00;102475.28;5072514;28;20045;-39
2021/10/07 02:46:11;;;;;;;2.30;0.70;;;;;;;11.14;100.00;102466.38;5071872;28;20051;-43
2021/10/07 02:48:41;;;;;;;2.58;1.10;;;;;;;11.19;100.00;102471.19;5072081;28;20053;-44
2021/10/07 02:51:09;;;;;;;3.92;0.80;;;;;;;11.22;100.00;102474.28;5072064;28;20139;-41
2021/10/07 02:53:37;;;;;;;2.60;0.80;;;;;;;11.26;100.00;102466.22;5072355;28;20048;-44
2021/10/07 02:56:06;;;;;;;3.33;1.00;;;;;;;11.29;100.00;102468.47;5071424;28;20045;-37
2021/10/07 02:58:34;;;;;;;2.33;0.75;;;;;;;11.30;100.00;102468.22;5071998;28;20075;-42
2021/10/07 03:01:02;;;;;;;2.20;0.75;;;;;;;11.32;100.00;102468.81;5072252;28;20072;-37
2021/10/07 03:03:31;;;;;;;2.17;0.60;;;;;;;11.35;100.00;102462.69;5071632;28;20045;-37
2021/10/07 03:05:59;;;;;;;1.88;0.60;;;;;;;11.36;100.00;102467.16;5071810;28;20131;-37
2021/10/07 03:08:28;;;;;;;2.10;0.70;;;;;;;11.37;100.00;102471.66;5072128;28;20036;-40
2021/10/07 03:10:56;;;;;;;2.25;0.80;;;;;;;11.36;100.00;102469.97;5071353;28;20147;-38
2021/10/07 03:13:24;;;;;;;2.40;0.55;;;;;;;11.36;100.00;102475.56;5071330;28;20136;-42
2021/10/07 03:15:52;;;;;;;1.60;0.55;;;;;;;11.35;100.00;102479.47;5071526;28;20122;-37
2021/10/07 03:18:20;;;;;;;2.17;0.47;;;;;;;11.34;100.00;102488.94;5071689;28;20106;-44
2021/10/07 03:20:49;;;;;;;1.38;0.45;;;;;;;11.33;100.00;102486.41;5071738;28;20083;-39
2021/10/07 03:23:17;;;;;;;1.67;0.52;;;;;;;11.32;100.00;102491.16;5067581;28;20041;-39
2021/10/07 03:25:44;;;;;;;3.50;1.38;;;;;;;11.33;100.00;102495.66;5055506;28;20131;-36
2021/10/07 03:28:12;;;;;;;2.70;1.30;;;;;;;11.35;100.00;102500.97;5071647;28;20131;-38
2021/10/07 03:30:40;;;;;;;1.77;0.80;;;;;;;11.35;100.00;102504.63;5071088;28;20048;-43
2021/10/07 03:33:10;;;;;;;1.95;0.80;;;;;;;11.37;100.00;102510.78;5067937;28;20045;-40
2021/10/07 03:35:38;;;;;;;2.38;0.95;;;;;;;11.38;100.00;102517.22;5071570;28;20048;-33
2021/10/07 03:38:07;;;;;;;2.60;0.70;;;;;;;11.39;100.00;102514.13;5070396;28;20109;-42
2021/10/07 03:40:35;;;;;;;2.38;0.95;;;;;;;11.40;100.00;102518.63;5071493;28;20552;-38
2021/10/07 03:43:04;;;;;;;4.10;1.83;;;;;;;11.43;100.00;102517.25;5071079;28;20139;-41
2021/10/07 03:45:32;;;;;;;2.47;1.10;;;;;;;11.45;100.00;102519.78;5070927;28;20161;-36
2021/10/07 03:48:00;;;;;;;2.00;0.88;;;;;;;11.49;100.00;102518.16;5070947;28;20135;-36
2021/10/07 03:50:29;;;;;;;2.50;1.08;;;;;;;11.50;100.00;102522.63;5071429;28;20056;-41
2021/10/07 03:52:57;;;;;;;2.22;0.88;;;;;;;11.52;100.00;102526.84;5070210;28;20045;-41
2021/10/07 03:55:26;;;;;;;2.53;1.00;;;;;;;11.56;100.00;102519.63;5060325;28;20068;-40
2021/10/07 03:57:54;;;;;;;2.58;0.90;;;;;;;11.58;100.00;102528.59;5069562;28;20058;-41
2021/10/07 04:00:23;;;;;;;1.63;0.90;;;;;;;11.61;100.00;102527.19;5070603;28;20045;-37
2021/10/07 04:02:50;;;;;;;2.33;1.02;;;;;;;11.65;100.00;102533.94;5070793;28;20123;-39
2021/10/07 04:05:18;;;;;;;2.58;0.70;;;;;;;11.68;100.00;102533.44;5066664;28;20047;-39
2021/10/07 04:07:46;;;;;;;2.80;0.80;;;;;;;11.71;100.00;102541.28;5070921;28;20139;-41
2021/10/07 04:10:14;;;;;;;1.67;0.80;;;;;;;11.74;100.00;102540.75;5070836;28;20288;-35
2021/10/07 04:12:43;;;;;;;2.03;0.82;;;;;;;11.78;100.00;102538.31;5070326;28;20054;-38
2021/10/07 04:15:11;;;;;;;5.28;1.38;;;;;;;11.80;100.00;102541.66;5070867;28;20059;-39
2021/10/07 04:17:38;;;;;;;2.30;1.10;;;;;;;11.84;100.00;102540.03;5070895;28;20401;-37
2021/10/07 04:20:07;;;;;;;3.83;1.08;;;;;;;11.86;100.00;102549.84;5070295;28;20061;-41
2021/10/07 04:22:34;;;;;;;2.42;1.00;;;;;;;11.89;100.00;102557.69;5070733;28;20079;-36
2021/10/07 04:25:02;;;;;;;2.75;0.82;;;;;;;11.92;100.00;102550.72;5070557;28;20514;-41
2021/10/07 04:27:31;;;;;;;3.63;0.80;;;;;;;11.94;100.00;102559.72;5070259;28;20054;-42
2021/10/07 04:30:01;;;;;;;5.03;2.00;;;;;;;11.97;100.00;102562.81;5070335;28;20075;-43
2021/10/07 04:32:29;;;;;;;2.85;1.10;;;;;;;11.99;100.00;102562.56;5070872;28;20094;-35
2021/10/07 04:34:57;;;;;;;3.33;1.30;;;;;;;12.00;100.00;102565.06;5070183;28;20131;-40
2021/10/07 04:37:25;;;;;;;3.35;1.15;;;;;;;12.01;100.00;102561.16;5070465;28;20102;-40
2021/10/07 04:39:52;;;;;;;4.80;1.58;;;;;;;12.02;100.00;102562.84;5070144;28;20060;-43
2021/10/07 04:42:20;;;;;;;3.50;1.30;;;;;;;12.04;100.00;102568.16;5070163;28;20072;-42
2021/10/07 04:44:48;;;;;;;1.70;1.00;;;;;;;12.04;100.00;102560.63;5070143;28;20051;-38
2021/10/07 04:47:17;;;;;;;2.15;0.85;;;;;;;12.06;100.00;102564.00;5070577;28;20598;-37
2021/10/07 04:49:44;;;;;;;2.47;1.20;;;;;;;12.09;100.00;102571.00;5070136;28;20041;-39
2021/10/07 04:52:12;;;;;;;2.50;1.00;;;;;;;12.11;100.00;102570.75;5070627;28;20405;-43
2021/10/07 04:54:40;;;;;;;3.55;1.10;;;;;;;12.12;100.00;102570.47;5068519;28;20103;-33
2021/10/07 04:57:07;;;;;;;1.80;1.00;;;;;;;12.13;100.00;102574.97;5070621;28;20524;-40
2021/10/07 04:59:35;;;;;;;2.35;0.90;;;;;;;12.16;100.00;102576.41;5070096;28;20931;-41
2021/10/07 05:02:03;;;;;;;2.28;0.85;;;;;;;12.17;100.00;102575.28;5068863;28;20041;-36
2021/10/07 05:04:32;;;;;;;2.25;0.93;;;;;;;12.18;100.00;102577.81;5070564;28;20047;-38
2021/10/07 05:07:00;;;;;;;3.70;1.17;;;;;;;12.20;100.00;102575.56;5070160;28;20048;-38
2021/10/07 05:09:28;;;;;;;3.90;1.40;;;;;;;12.21;100.00;102579.22;5069818;28;20486;-33
2021/10/07 05:11:56;;;;;;;3.20;1.70;;;;;;;12.22;100.00;102581.75;5069989;28;20151;-36
2021/10/07 05:14:23;;;;;;;4.10;1.50;;;;;;;12.23;100.00;102588.19;5070189;28;20477;-37
2021/10/07 05:16:51;;;;;;;2.75;1.20;;;;;;;12.23;100.00;102594.63;5069622;28;20084;-36
2021/10/07 05:19:19;;;;;;;3.42;1.70;;;;;;;12.26;100.00;102601.66;5069956;28;20509;-43
2021/10/07 05:21:48;;;;;;;3.83;1.55;;;;;;;12.29;100.00;102601.97;5069620;28;20056;-39
2021/10/07 05:24:15;;;;;;;3.10;1.50;;;;;;;12.32;100.00;102608.97;5068744;28;20144;-33
2021/10/07 05:26:44;;;;;;;3.70;1.70;;;;;;;12.34;100.00;102616.00;5068515;28;20453;-40
2021/10/07 05:29:11;;;;;;;3.13;1.30;;;;;;;12.35;100.00;102612.09;5068776;28;20044;-40
2021/10/07 05:31:39;;;;;;;2.03;1.20;;;;;;;12.39;100.00;102617.97;5068058;28;20048;-39
2021/10/07 05:34:07;;;;;;;3.05;1.20;;;;;;;12.40;100.00;102614.91;5069319;28;20053;-34
2021/10/07 05:36:35;;;;;;;2.85;1.25;;;;;;;12.43;100.00;102621.94;5068370;28;20044;-42
2021/10/07 05:39:04;;;;;;;2.95;1.10;;;;;;;12.45;100.00;102621.66;5070249;28;20052;-38
2021/10/07 05:41:32;;;;;;;2.33;0.85;;;;;;;12.46;100.00;102624.19;5069926;28;20493;-35
2021/10/07 05:43:59;;;;;;;3.58;1.20;;;;;;;12.49;100.00;102622.81;5069657;28;20063;-43
2021/10/07 05:46:27;;;;;;;2.35;1.00;;;;;;;12.50;100.00;102628.16;5070042;28;20063;-37
2021/10/07 05:48:55;;;;;;;3.72;0.95;;;;;;;12.51;100.00;102632.66;5072088;28;20048;-38
2021/10/07 05:51:23;;;;;;;1.65;0.70;;;;;;;12.53;100.00;102635.19;5072581;28;20052;-39
2021/10/07 05:53:50;;;;;;;4.18;1.17;;;;;;;12.55;100.00;102639.41;5073094;28;20561;-38
2021/10/07 05:56:19;;;;;;;2.13;1.00;;;;;;;12.56;100.00;102635.50;5073132;28;20084;-41
2021/10/07 05:58:47;;;;;;;1.95;0.98;;;;;;;12.58;100.00;102644.47;5072742;28;20044;-39
2021/10/07 06:01:19;;;;;;;2.60;1.20;;;;;;;12.60;100.00;102641.38;5073390;28;20076;-39
2021/10/07 06:03:47;;;;;;;2.47;1.00;;;;;;;12.62;100.00;102642.78;5073133;28;20102;-45
2021/10/07 06:06:15;;;;;;;3.03;1.10;;;;;;;12.65;100.00;102645.06;5073148;28;20047;-34
2021/10/07 06:08:42;;;;;;;2.83;1.02;;;;;;;12.66;100.00;102645.91;5073538;28;20060;-37
2021/10/07 06:11:10;;;;;;;2.80;1.52;;;;;;;12.70;100.00;102645.09;5073089;28;20056;-43
2021/10/07 06:13:39;;;;;;;2.38;1.10;;;;;;;12.74;100.00;102645.41;5072467;28;20045;-35
2021/10/07 06:16:07;;;;;;;3.95;1.17;;;;;;;12.77;100.00;102647.69;5073194;28;20049;-40
2021/10/07 06:18:36;;;;;;;3.75;1.10;;;;;;;12.80;100.00;102651.88;5072785;28;20048;-36
2021/10/07 06:21:04;;;;;;;2.72;1.20;;;;;;;12.83;100.00;102654.13;5072710;28;20075;-37
2021/10/07 06:23:39;;;;;;;6.78;1.52;;;;;;;12.85;100.00;102652.75;5072863;28;20045;-41
2021/10/07 06:26:07;;;;;;;2.88;1.23;;;;;;;12.89;100.00;102653.91;5072714;28;20494;-42
2021/10/07 06:28:34;;;;;;;2.70;0.90;;;;;;;12.93;100.00;102655.06;5072573;28;20040;-40
2021/10/07 06:31:04;;;;;;;1.88;1.00;;;;;;;12.97;100.00;102656.19;5072796;28;20037;-43
2021/10/07 06:33:31;;;;;;;2.78;1.15;;;;;;;13.01;100.00;102659.28;5071879;28;20115;-36
2021/10/07 06:35:59;;;;;;;2.08;1.10;;;;;;;13.06;100.00;102670.53;5072823;28;20101;-38
2021/10/07 06:38:27;;;;;;;2.97;1.13;;;;;;;13.09;100.00;102675.59;5071175;28;20049;-38
2021/10/07 06:40:55;;;;;;;3.50;1.17;;;;;;;13.12;100.00;102680.66;5072104;28;20486;-42
2021/10/07 06:43:23;;;;;;;3.35;1.45;;;;;;;13.15;100.00;102682.97;5072459;28;20075;-41
2021/10/07 06:45:51;;;;;;;4.93;1.63;;;;;;;13.17;100.00;102683.53;5073134;28;20052;-36
2021/10/07 06:48:20;;;;;;;7.90;2.08;;;;;;;13.18;100.00;102681.56;5071938;28;20037;-37
2021/10/07 06:50:48;;;;;;;3.80;1.40;;;;;;;13.18;100.00;102689.97;5072537;28;20044;-44
2021/10/07 06:53:17;;;;;;;4.90;2.15;;;;;;;13.21;100.00;102693.06;5072469;28;20544;-36
2021/10/07 06:55:45;;;;;;;2.47;1.10;;;;;;;13.21;100.00;102689.41;5071586;28;20051;-35
2021/10/07 06:58:16;;;;;;;3.05;1.30;;;;;;;13.23;100.00;102693.63;5072704;28;20044;-40
2021/10/07 07:00:44;;;;;;;2.42;1.17;;;;;;;13.27;100.00;102700.38;5072032;28;20076;-39
2021/10/07 07:03:12;;;;;;;6.05;2.42;;;;;;;13.30;100.00;102697.03;5071957;28;20042;-41
2021/10/07 07:05:41;;;;;;;5.00;1.80;;;;;;;13.33;100.00;102693.69;5072218;28;20059;-38
2021/10/07 07:08:09;;;;;;;4.57;1.73;;;;;;;13.34;100.00;102698.19;5055502;28;20064;-39
2021/10/07 07:10:37;;;;;;;5.90;2.25;;;;;;;13.38;100.00;102701.31;5071833;28;20052;-37
2021/10/07 07:13:06;;;;;;;5.57;1.58;;;;;;;13.41;100.00;102695.97;5071891;28;20551;-41
2021/10/07 07:15:35;;;;;;;4.65;1.80;;;;;;;13.47;100.00;102696.00;5068221;28;20114;-37
2021/10/07 07:18:03;;;;;;;4.55;2.05;;;;;;;13.53;100.00;102706.13;5072144;28;20052;-38
2021/10/07 07:20:30;;;;;;;4.45;2.03;;;;;;;13.60;100.00;102701.09;5071506;28;20044;-39
2021/10/07 07:22:59;;;;;;;5.90;2.30;;;;;;;13.65;100.00;102706.72;5071318;28;20048;-39
2021/10/07 07:25:27;;;;;;;4.40;1.88;;;;;;;13.73;100.00;102714.63;5071490;28;20048;-36
2021/10/07 07:27:55;;;;;;;3.90;1.70;;;;;;;13.82;100.00;102712.94;5071786;28;20676;-43
2021/10/07 07:30:23;;;;;;;4.55;1.95;;;;;;;13.92;100.00;102709.34;5070943;28;20127;-38
2021/10/07 07:32:51;;;;;;;6.28;2.38;;;;;;;14.00;100.00;102717.19;5071934;28;20063;-39
2021/10/07 07:35:19;;;;;;;6.18;2.05;;;;;;;14.05;100.00;102715.25;5071143;28;20132;-39
2021/10/07 07:37:47;;;;;;;6.32;2.38;;;;;;;14.08;100.00;102719.47;5070990;28;20076;-35
2021/10/07 07:40:16;;;;;;;5.70;3.25;;;;;;;14.11;100.00;102716.13;5071416;28;20149;-37
2021/10/07 07:42:47;;;;;;;5.32;2.50;;;;;;;14.17;100.00;102719.78;5071696;28;20095;-42
2021/10/07 07:45:15;;;;;;;5.65;2.40;;;;;;;14.24;100.00;102729.63;5070874;28;20472;-41
2021/10/07 07:47:55;;;;;;;4.45;2.30;;;;;;;14.33;100.00;102730.75;5068278;28;20072;-39
2021/10/07 07:50:25;;;;;;;7.22;3.10;;;;;;;14.47;100.00;102733.88;5070492;28;20094;-40
2021/10/07 07:52:54;;;;;;;4.38;2.83;;;;;;;14.68;100.00;102743.16;5071484;28;20051;-40
2021/10/07 07:55:23;;;;;;;7.22;3.40;;;;;;;14.86;100.00;102738.94;5071301;28;20040;-39
2021/10/07 07:57:51;;;;;;;8.20;3.42;;;;;;;14.99;100.00;102744.81;5070289;28;20123;-37
2021/10/07 08:00:20;;;;;;;11.57;3.72;;;;;;;15.07;100.00;102749.03;5070957;28;20066;-39
2021/10/07 08:02:48;;;;;;;6.10;3.05;;;;;;;15.04;100.00;102750.44;5070911;28;20135;-40
2021/10/07 08:05:16;;;;;;;8.75;3.75;;;;;;;15.01;100.00;102748.19;5070627;28;20049;-43
2021/10/07 08:07:44;;;;;;;5.68;3.30;;;;;;;15.01;100.00;102753.81;5067363;28;20071;-41
2021/10/07 08:10:12;;;;;;;6.55;3.53;;;;;;;14.99;100.00;102755.22;5070585;28;20152;-41
2021/10/07 08:12:41;;;;;;;5.25;3.00;;;;;;;14.95;100.00;102756.94;5070098;28;20123;-39
2021/10/07 08:15:09;;;;;;;10.57;4.00;;;;;;;14.93;100.00;102753.56;5071025;28;20135;-39
2021/10/07 08:17:38;;;;;;;7.57;2.80;;;;;;;14.93;100.00;102751.59;5066142;28;20053;-41
2021/10/07 08:20:09;;;;;;;8.57;2.72;;;;;;;14.95;100.00;102752.16;5070499;28;20494;-36
2021/10/07 08:22:37;;;;;;;6.68;2.90;;;;;;;14.98;100.00;102762.00;5069340;28;20144;-40
2021/10/07 08:25:07;;;;;;;7.65;2.25;;;;;;;15.02;100.00;102771.53;5071072;28;20040;-38
2021/10/07 08:27:35;;;;;;;7.47;3.25;;;;;;;15.06;100.00;102769.84;5069957;28;20044;-36
2021/10/07 08:30:05;;;;;;;7.80;3.15;;;;;;;15.11;100.00;102764.22;5071195;28;20048;-41
2021/10/07 08:32:33;;;;;;;6.60;2.70;;;;;;;15.12;100.00;102766.75;5068681;28;20139;-36
2021/10/07 08:35:01;;;;;;;8.63;3.83;;;;;;;15.16;100.00;102764.22;5070973;28;20481;-41
2021/10/07 08:37:29;;;;;;;6.30;2.67;;;;;;;15.35;100.00;102759.69;5070581;28;20414;-36
2021/10/07 08:39:56;;;;;;;6.05;2.30;;;;;;;15.73;100.00;102760.16;5070356;28;20059;-38
2021/10/07 08:42:24;;;;;;;6.55;2.72;;;;;;;16.23;100.00;102766.63;5070232;28;20049;-40
2021/10/07 08:44:52;;;;;;;5.97;3.10;;;;;;;16.93;100.00;102765.31;5070859;28;20036;-37
2021/10/07 08:47:22;;;;;;;6.75;2.80;;;;;;;17.81;100.00;102758.41;5069866;28;20048;-45
2021/10/07 08:49:52;;;;;;;6.80;2.40;;;;;;;18.52;98.48;102763.91;5067708;28;20049;-44
2021/10/07 08:52:20;;;;;;;6.75;1.90;;;;;;;18.95;94.30;102768.63;5070516;28;20044;-44
2021/10/07 08:54:48;;;;;;;3.83;1.08;;;;;;;19.19;92.66;102772.13;5070215;28;20048;-41
2021/10/07 08:57:16;;;;;;;5.13;1.35;;;;;;;19.30;90.75;102779.28;5070537;28;20055;-41
2021/10/07 08:59:44;;;;;;;7.43;1.95;;;;;;;19.33;89.55;102780.66;5070432;28;20059;-41
2021/10/07 09:02:25;;;;;;;5.95;1.20;;;;;;;19.38;89.26;102774.91;5070163;28;20045;-43
2021/10/07 09:04:54;;;;;;;7.85;1.20;;;;;;;19.32;87.29;102785.47;5070512;28;20476;-37
2021/10/07 09:07:22;;;;;;;5.60;1.13;;;;;;;19.30;86.97;102784.94;5070407;28;20040;-36
2021/10/07 09:09:57;;;;;;;3.03;0.90;;;;;;;19.33;87.13;102781.50;5069997;28;20414;-39
2021/10/07 09:12:24;;;;;;;3.03;0.70;;;;;;;19.24;85.61;102780.53;5055260;28;20059;-45
2021/10/07 09:14:52;;;;;;;4.45;1.10;;;;;;;19.06;85.78;102787.94;5069904;28;20041;-40
2021/10/07 09:17:23;;;;;;;3.30;1.00;;;;;;;18.98;86.07;102780.16;5070328;28;20044;-38
2021/10/07 09:19:52;;;;;;;3.83;1.07;;;;;;;18.87;85.80;102785.13;5070283;28;20056;-40
2021/10/07 09:22:22;;;;;;;3.28;0.75;;;;;;;18.76;86.17;102786.47;5070986;28;20489;-39
2021/10/07 09:24:52;;;;;;;3.22;0.90;;;;;;;18.68;86.41;102789.97;5070421;28;20044;-43
2021/10/07 09:27:21;;;;;;;3.88;0.75;;;;;;;18.56;86.16;102786.75;5074323;28;20056;-42
2021/10/07 09:29:51;;;;;;;3.65;0.80;;;;;;;18.44;85.79;102790.03;5073519;28;20045;-41
2021/10/07 09:32:30;;;;;;;2.60;0.60;;;;;;;18.32;86.40;102786.84;5073990;28;20048;-43
2021/10/07 09:35:00;;;;;;;2.97;0.90;;;;;;;18.23;86.18;102795.16;5073871;28;20064;-41
2021/10/07 09:37:31;;;;;;;3.85;0.60;;;;;;;18.17;86.03;102782.25;5073517;28;20063;-36
2021/10/07 09:40:04;;;;;;;3.40;0.80;;;;;;;18.10;86.19;102778.94;5073637;28;20056;-38
2021/10/07 09:42:34;;;;;;;3.63;0.90;;;;;;;18.10;86.46;102778.94;5073972;28;20497;-39
2021/10/07 09:45:11;;;;;;;5.78;1.08;;;;;;;18.14;86.70;102785.69;5072844;28;20047;-38
2021/10/07 09:47:41;;;;;;;4.30;0.75;;;;;;;18.17;86.72;102784.22;5073769;28;20597;-37
2021/10/07 09:50:21;;;;;;;4.30;1.08;;;;;;;18.21;86.87;102785.28;5073086;28;20048;-43
2021/10/07 09:52:52;;;;;;;4.45;1.13;;;;;;;18.21;86.28;102788.94;5073734;28;20060;-40
2021/10/07 09:55:22;;;;;;;3.03;0.60;;;;;;;18.18;85.98;102785.91;5073265;28;20050;-41
2021/10/07 09:57:56;;;;;;;2.80;1.13;;;;;;;18.23;86.22;102785.81;5073351;28;20106;-41
2021/10/07 10:00:27;;;;;;;3.80;0.85;;;;;;;18.21;85.81;102783.31;5073573;28;20068;-40
2021/10/07 10:02:57;;;;;;;4.00;0.80;;;;;;;18.20;85.27;102784.44;5073812;28;20052;-41
2021/10/07 10:05:30;;;;;;;2.47;0.75;;;;;;;18.14;84.83;102787.66;5072663;28;20060;-41
2021/10/07 10:07:57;;;;;;;2.83;0.68;;;;;;;18.01;84.56;102786.41;5073568;28;20147;-43
2021/10/07 10:10:26;;;;;;;2.40;0.60;;;;;;;17.98;85.45;102794.66;5073127;28;20054;-37
2021/10/07 10:12:54;;;;;;;3.38;0.80;;;;;;;17.99;85.73;102787.84;5072963;28;20044;-43
2021/10/07 10:15:22;;;;;;;3.05;0.60;;;;;;;17.97;85.26;102791.00;5073403;28;20071;-43
2021/10/07 10:17:51;;;;;;;4.22;0.98;;;;;;;18.10;86.15;102793.06;5073283;28;20076;-41
2021/10/07 10:20:22;;;;;;;3.85;1.00;;;;;;;18.46;86.27;102793.41;5072648;28;20060;-36
2021/10/07 10:22:55;;;;;;;2.17;0.60;;;;;;;18.73;84.61;102798.41;5072738;28;20151;-38
2021/10/07 10:25:24;;;;;;;4.38;0.70;;;;;;;18.84;83.51;102799.06;5072634;28;20147;-39
2021/10/07 10:27:55;;;;;;;4.32;0.98;;;;;;;18.95;81.79;102811.06;5072807;28;20464;-39
2021/10/07 10:30:31;;;;;;;5.00;1.13;;;;;;;19.06;81.85;102795.56;5073033;28;20044;-36
2021/10/07 10:33:02;;;;;;;3.05;0.80;;;;;;;19.21;81.41;102803.78;5071877;28;20064;-41
2021/10/07 10:35:36;;;;;;;3.33;0.70;;;;;;;19.43;80.64;102806.78;5072242;28;20489;-37
2021/10/07 10:38:10;;;;;;;3.38;0.80;;;;;;;19.58;78.95;102806.50;5072619;28;20488;-40
2021/10/07 10:40:39;;;;;;;3.03;0.60;;;;;;;19.89;79.15;102803.06;5072142;28;20051;-40
2021/10/07 10:43:37;;;;;;;3.25;0.70;;;;;;;20.36;77.71;102803.75;5072415;28;20048;-41
2021/10/07 10:46:15;;;;;;;2.63;0.60;;;;;;;20.81;76.07;102807.50;5072027;28;20605;-40
2021/10/07 10:49:03;;;;;;;2.55;0.80;;;;;;;21.25;74.44;102813.22;5072328;28;20098;-41
2021/10/07 10:51:36;;;;;;;1.48;0.40;;;;;;;21.61;73.24;102810.22;5072091;28;20705;-42
2021/10/07 10:54:11;;;;;;;3.47;1.00;;;;;;;21.93;71.67;102811.88;5072106;28;20048;-43
2021/10/07 10:56:42;;;;;;;2.42;0.70;;;;;;;22.27;70.70;102816.00;5070929;28;20585;-39
2021/10/07 10:59:23;;;;;;;2.78;0.80;;;;;;;22.49;68.32;102815.03;5069296;28;20051;-38
2021/10/07 11:02:26;;;;;;;3.72;0.55;;;;;;;22.58;67.41;102818.75;5071487;28;20044;-42
2021/10/07 11:04:56;;;;;;;2.42;0.60;;;;;;;22.80;67.80;102817.75;5062790;28;20056;-39
2021/10/07 11:07:31;;;;;;;3.20;0.60;;;;;;;23.01;66.06;102830.13;5071620;28;20068;-39
2021/10/07 11:10:14;;;;;;;4.55;0.85;;;;;;;23.12;64.93;102825.78;5072095;28;20052;-36
2021/10/07 11:12:55;;;;;;;2.13;0.60;;;;;;;23.18;63.31;102830.09;5072173;28;20044;-38
2021/10/07 11:15:25;;;;;;;3.60;0.90;;;;;;;23.19;63.78;102823.22;5071708;28;20156;-40
2021/10/07 11:17:54;;;;;;;3.10;0.68;;;;;;;23.41;63.30;102833.59;5071869;28;20052;-38
2021/10/07 11:20:25;;;;;;;4.00;1.08;;;;;;;23.61;61.78;102827.19;5072052;28;20176;-36
2021/10/07 11:23:06;;;;;;;3.30;0.80;;;;;;;23.40;60.36;102831.91;5071056;28;20040;-35
2021/10/07 11:25:38;;;;;;;2.33;0.50;;;;;;;23.19;61.88;102833.78;5062173;28;20144;-40
2021/10/07 11:28:06;;;;;;;4.40;0.80;;;;;;;22.99;61.87;102832.47;5071616;28;20098;-37
2021/10/07 11:30:37;;;;;;;3.58;0.60;;;;;;;22.95;62.22;102832.34;5071272;28;20040;-36